createdAt,value
2023-05-21T00:00:59.672Z,98.2230
2023-05-21T00:02:02.133Z,98.2186
2023-05-21T00:03:04.544Z,98.2258
2023-05-21T00:04:05.840Z,98.2316
2023-05-21T00:06:10.230Z,98.2170
2023-05-21T00:07:11.848Z,98.2509
2023-05-21T00:08:12.905Z,98.2773
2023-05-21T00:09:14.513Z,98.3036
2023-05-21T00:10:16.328Z,98.3080
2023-05-21T00:11:17.199Z,98.3306
2023-05-21T00:12:18.358Z,98.3422
2023-05-21T00:14:21.664Z,98.3872
2023-05-21T00:15:22.265Z,98.4112
2023-05-21T00:16:23.503Z,98.4320
2023-05-21T00:18:24.455Z,98.4696
2023-05-21T00:20:27.156Z,98.5050
2023-05-21T00:21:29.136Z,98.5271
2023-05-21T00:22:28.939Z,98.5260
2023-05-21T00:33:44.199Z,98.5079
2023-05-21T00:34:44.368Z,98.5028
2023-05-21T00:36:47.327Z,98.5352
2023-05-21T00:37:48.511Z,98.5609
2023-05-21T00:38:51.243Z,98.5642
2023-05-21T00:39:52.166Z,98.5790
2023-05-21T00:46:01.033Z,98.5152
2023-05-21T00:47:02.746Z,98.5125
2023-05-21T00:48:04.094Z,98.5297
2023-05-21T00:49:05.267Z,98.5435
2023-05-21T00:50:07.176Z,98.5431
2023-05-21T00:51:09.654Z,98.5614
2023-05-21T00:52:10.704Z,98.5737
2023-05-21T00:54:13.508Z,98.6202
2023-05-21T00:55:15.467Z,98.6474
2023-05-21T00:56:16.525Z,98.6544
2023-05-21T00:57:17.170Z,98.6443
2023-05-21T00:58:19.387Z,98.6371
2023-05-21T00:59:20.597Z,98.6393
2023-05-21T01:00:21.939Z,98.6465
2023-05-21T01:01:24.139Z,98.6660
2023-05-21T01:02:26.038Z,98.6802
2023-05-21T01:04:29.454Z,98.6948
2023-05-21T01:05:31.074Z,98.6868
2023-05-21T01:06:32.741Z,98.6860
2023-05-21T01:07:33.747Z,98.6822
2023-05-21T01:09:37.649Z,98.6685
2023-05-21T01:19:46.978Z,98.6121
2023-05-21T01:20:46.676Z,98.6005
2023-05-21T01:34:02.494Z,98.3673
2023-05-21T01:35:01.636Z,98.3433
2023-05-21T01:38:07.351Z,98.3085
2023-05-21T01:44:13.960Z,98.2848
2023-05-21T01:45:15.865Z,98.2859
2023-05-21T01:46:16.903Z,98.2612
2023-05-21T01:47:17.939Z,98.2293
2023-05-21T01:48:18.899Z,98.1957
2023-05-21T01:49:20.804Z,98.1690
2023-05-21T01:58:30.788Z,98.1588
2023-05-21T01:59:31.999Z,98.1640
2023-05-21T02:00:33.715Z,98.1699
2023-05-21T02:01:36.278Z,98.1693
2023-05-21T02:02:37.066Z,98.1834
2023-05-21T02:03:37.288Z,98.1710
2023-05-21T02:04:39.542Z,98.1657
2023-05-21T02:05:39.831Z,98.1484
2023-05-21T02:06:40.859Z,98.1464
2023-05-21T02:07:42.739Z,98.1628
2023-05-21T02:08:43.543Z,98.1638
2023-05-21T02:17:56.214Z,98.1852
2023-05-21T02:24:02.624Z,98.2109
2023-05-21T02:25:07.320Z,98.2532
2023-05-21T02:34:14.566Z,98.2179
2023-05-21T02:35:15.688Z,98.2349
2023-05-21T02:36:16.674Z,98.2809
2023-05-21T02:37:19.117Z,98.2961
2023-05-21T02:38:20.741Z,98.2835
2023-05-21T02:39:22.251Z,98.2702
2023-05-21T02:40:22.588Z,98.2742
2023-05-21T02:41:23.731Z,98.2978
2023-05-21T02:42:25.349Z,98.3027
2023-05-21T02:43:26.435Z,98.2989
2023-05-21T02:44:28.560Z,98.3234
2023-05-21T02:45:29.873Z,98.3346
2023-05-21T02:46:31.035Z,98.3161
2023-05-21T02:48:33.758Z,98.3530
2023-05-21T02:49:35.798Z,98.3773
2023-05-21T03:02:51.378Z,98.5267
2023-05-21T03:03:52.832Z,98.5686
2023-05-21T03:04:54.564Z,98.5859
2023-05-21T03:05:56.410Z,98.5894
2023-05-21T03:06:57.140Z,98.5643
2023-05-21T03:07:58.588Z,98.5713
2023-05-21T03:09:00.823Z,98.5877
2023-05-21T03:10:01.843Z,98.6018
2023-05-21T03:11:03.373Z,98.6029
2023-05-21T03:12:04.960Z,98.6027
2023-05-21T03:13:10.159Z,98.6146
2023-05-21T03:14:08.099Z,98.6236
2023-05-21T03:23:46.931Z,98.5587
2023-05-21T03:24:48.235Z,98.5353
2023-05-21T03:25:49.762Z,98.5355
2023-05-21T03:27:51.766Z,98.6431
2023-05-21T03:28:53.287Z,98.6598
2023-05-21T03:29:55.233Z,98.6519
2023-05-21T03:30:56.668Z,98.6601
2023-05-21T03:31:58.137Z,98.6927
2023-05-21T03:32:59.467Z,98.7017
2023-05-21T03:34:00.933Z,98.6908
2023-05-21T03:35:02.100Z,98.6807
2023-05-21T03:36:03.735Z,98.6514
2023-05-21T03:37:04.744Z,98.6461
2023-05-21T03:38:06.007Z,98.7071
2023-05-21T03:39:07.190Z,98.7093
2023-05-21T03:40:08.596Z,98.7622
2023-05-21T03:42:10.719Z,98.8545
2023-05-21T03:43:12.810Z,98.8926
2023-05-21T03:49:17.184Z,98.9852
2023-05-21T03:50:18.225Z,98.9955
2023-05-21T03:51:19.747Z,99.0063
2023-05-21T03:52:21.016Z,99.0146
2023-05-21T03:53:21.646Z,99.0364
2023-05-21T03:54:22.833Z,99.0430
2023-05-21T03:55:23.963Z,99.0646
2023-05-21T03:56:25.422Z,99.0661
2023-05-21T03:57:26.498Z,99.0614
2023-05-21T03:58:28.126Z,99.0426
2023-05-21T03:59:30.448Z,98.9881
2023-05-21T04:00:30.428Z,99.0267
2023-05-21T04:11:42.364Z,99.0799
2023-05-21T04:12:43.950Z,99.0820
2023-05-21T04:13:45.656Z,99.0924
2023-05-21T04:14:45.472Z,99.0834
2023-05-21T04:16:49.972Z,99.0697
2023-05-21T04:30:04.263Z,98.9261
2023-05-21T04:31:06.452Z,98.9121
2023-05-21T04:32:06.501Z,98.8818
2023-05-21T04:33:08.711Z,98.8628
2023-05-21T04:34:10.650Z,98.8420
2023-05-21T04:39:15.491Z,98.6902
2023-05-21T04:40:17.310Z,98.6626
2023-05-21T04:41:19.395Z,98.6254
2023-05-21T04:42:20.561Z,98.5558
2023-05-21T04:43:23.364Z,98.4708
2023-05-21T04:44:25.601Z,98.4095
2023-05-21T04:53:35.195Z,97.9835
2023-05-21T04:54:36.386Z,97.8492
2023-05-21T04:55:38.738Z,97.6909
2023-05-21T05:02:45.184Z,97.1202
2023-05-21T05:05:49.486Z,96.6426
2023-05-21T05:06:49.715Z,96.5397
2023-05-21T05:07:49.740Z,96.4303
2023-05-21T05:08:51.270Z,96.3087
2023-05-21T05:09:53.514Z,96.0240
2023-05-21T05:10:54.527Z,95.7604
2023-05-21T05:11:56.997Z,95.5964
2023-05-21T05:12:59.168Z,95.5465
2023-05-21T05:14:00.472Z,95.3935
2023-05-21T05:15:03.044Z,95.1807
2023-05-21T05:19:07.186Z,95.4425
2023-05-21T05:26:16.944Z,95.3058
2023-05-21T05:27:19.316Z,95.3171
2023-05-21T05:33:26.350Z,94.9763
2023-05-21T05:34:28.351Z,94.8324
2023-05-21T05:35:29.354Z,94.6357
2023-05-21T05:36:29.772Z,94.5409
2023-05-21T05:37:32.165Z,94.4998
2023-05-21T05:38:33.168Z,94.3345
2023-05-21T05:39:34.158Z,94.2086
2023-05-21T05:40:35.887Z,93.9675
2023-05-21T05:41:37.060Z,93.8827
2023-05-21T05:42:37.959Z,93.8522
2023-05-21T05:43:38.939Z,93.7697
2023-05-21T05:44:40.996Z,93.8419
2023-05-21T05:53:48.431Z,93.8318
2023-05-21T05:55:51.828Z,92.9775
2023-05-21T05:56:53.424Z,93.1769
2023-05-21T05:57:54.347Z,93.4229
2023-05-21T05:58:55.239Z,93.3187
2023-05-21T05:59:56.907Z,93.2822
2023-05-21T06:00:57.810Z,93.0352
2023-05-21T06:01:58.343Z,92.8878
2023-05-21T06:02:59.477Z,92.6978
2023-05-21T06:04:00.635Z,92.5385
2023-05-21T06:05:02.210Z,92.7424
2023-05-21T06:06:04.246Z,92.3496
2023-05-21T06:19:15.295Z,92.1113
2023-05-21T06:20:17.370Z,91.6450
2023-05-21T06:21:17.507Z,91.5895
2023-05-21T06:22:18.623Z,90.7972
2023-05-21T06:24:21.281Z,89.6184
2023-05-21T06:25:21.878Z,89.5908
2023-05-21T06:26:23.270Z,89.9200
2023-05-21T06:27:26.154Z,89.3081
2023-05-21T06:28:27.466Z,89.2937
2023-05-21T06:45:49.487Z,88.5894
2023-05-21T06:46:49.314Z,87.7763
2023-05-21T06:47:51.719Z,86.6635
2023-05-21T06:48:52.129Z,86.9123
2023-05-21T06:52:56.017Z,85.2999
2023-05-21T06:55:00.129Z,85.8796
2023-05-21T06:56:00.710Z,85.7104
2023-05-21T06:57:01.154Z,85.2535
2023-05-21T06:58:02.980Z,85.7728
2023-05-21T06:59:05.270Z,85.4323
2023-05-21T07:06:13.112Z,84.5136
2023-05-21T07:07:14.838Z,84.3861
2023-05-21T07:08:17.342Z,85.0916
2023-05-21T07:09:18.114Z,85.0068
2023-05-21T07:26:39.941Z,82.0311
2023-05-21T07:27:40.701Z,81.7819
2023-05-21T07:28:41.488Z,82.1832
2023-05-21T07:30:44.717Z,82.7458
2023-05-21T07:31:45.905Z,82.5214
2023-05-21T07:32:47.239Z,81.9928
2023-05-21T07:33:48.976Z,80.6621
2023-05-21T07:34:50.558Z,80.1078
2023-05-21T08:00:14.044Z,77.5120
2023-05-21T08:09:20.922Z,76.8004
2023-05-21T08:10:21.128Z,77.1275
2023-05-21T08:11:22.833Z,77.2487
2023-05-21T08:12:23.610Z,76.4160
2023-05-21T08:13:24.241Z,75.6577
2023-05-21T08:14:25.688Z,75.0889
2023-05-21T08:15:26.696Z,73.9071
2023-05-21T08:16:27.027Z,72.6739
2023-05-21T08:17:29.615Z,72.1123
2023-05-21T08:18:29.937Z,72.0764
2023-05-21T08:19:30.937Z,70.4923
2023-05-21T08:20:33.438Z,72.9180
2023-05-21T08:21:33.818Z,70.8732
2023-05-21T08:22:34.422Z,70.5226
2023-05-21T08:23:35.385Z,72.9690
2023-05-21T08:24:35.618Z,73.2401
2023-05-21T08:26:37.661Z,71.4829
2023-05-21T08:27:37.481Z,71.4485
2023-05-21T08:28:39.542Z,71.2625
2023-05-21T08:29:41.688Z,71.6030
2023-05-21T08:30:42.282Z,72.4411
2023-05-21T08:31:42.239Z,69.8829
2023-05-21T08:33:46.553Z,72.7706
2023-05-21T08:34:46.834Z,72.5790
2023-05-21T08:44:53.922Z,67.8515
2023-05-21T08:45:56.360Z,69.0812
2023-05-21T08:46:56.754Z,68.8028
2023-05-21T08:49:00.385Z,66.0788
2023-05-21T08:50:02.209Z,67.0934
2023-05-21T08:51:03.006Z,67.5624
2023-05-21T08:52:04.050Z,67.8099
2023-05-21T08:53:19.732Z,67.1121
2023-05-21T08:56:07.949Z,66.3044
2023-05-21T08:57:08.140Z,68.2584
2023-05-21T09:01:20.281Z,71.6413
2023-05-21T09:05:23.983Z,69.2285
2023-05-21T09:07:27.224Z,65.7177
2023-05-21T09:08:28.439Z,65.1075
2023-05-21T09:09:29.800Z,62.7042
2023-05-21T09:10:31.210Z,62.2621
2023-05-21T09:11:31.734Z,62.2815
2023-05-21T09:12:33.859Z,63.1133
2023-05-21T09:13:39.476Z,62.6732
2023-05-21T09:23:44.089Z,59.7126
2023-05-21T09:27:50.209Z,64.2326
2023-05-21T09:28:51.944Z,65.0348
2023-05-21T09:29:53.612Z,65.7169
2023-05-21T09:31:00.209Z,66.3258
2023-05-21T09:43:13.319Z,52.7756
2023-05-21T09:45:17.846Z,59.6508
2023-05-21T09:46:17.701Z,61.0433
2023-05-21T09:47:19.929Z,60.8319
2023-05-21T09:48:20.126Z,59.6181
2023-05-21T09:49:21.261Z,61.7448
2023-05-21T09:51:23.697Z,62.2664
2023-05-21T09:52:23.869Z,59.4119
2023-05-21T09:53:25.475Z,59.2477
2023-05-21T09:54:26.882Z,60.6757
2023-05-21T09:55:28.537Z,61.8507
2023-05-21T09:57:29.916Z,61.2576
2023-05-21T09:58:31.799Z,61.1763
2023-05-21T10:03:40.219Z,61.1480
2023-05-21T10:04:41.641Z,59.0565
2023-05-21T10:05:42.619Z,58.3179
2023-05-21T10:06:44.567Z,56.9961
2023-05-21T10:07:46.670Z,57.8779
2023-05-21T10:08:47.124Z,56.8426
2023-05-21T10:15:52.152Z,59.6410
2023-05-21T10:16:54.173Z,58.3465
2023-05-21T10:20:58.629Z,60.5020
2023-05-21T10:21:59.580Z,62.5160
2023-05-21T10:23:00.824Z,63.7308
2023-05-21T10:24:01.396Z,59.1309
2023-05-21T10:25:02.031Z,58.2067
2023-05-21T10:26:04.247Z,59.2676
2023-05-21T10:27:04.328Z,60.3451
2023-05-21T10:28:07.401Z,62.2804
2023-05-21T10:35:12.596Z,60.1281
2023-05-21T10:36:14.170Z,60.6739
2023-05-21T10:51:35.306Z,53.0938
2023-05-21T10:52:37.469Z,51.2450
2023-05-21T10:53:38.151Z,50.1469
2023-05-21T10:54:38.759Z,50.5875
2023-05-21T10:55:39.278Z,51.5523
2023-05-21T10:56:39.880Z,52.8062
2023-05-21T10:57:42.140Z,58.7831
2023-05-21T11:06:50.998Z,57.0792
2023-05-21T11:07:51.447Z,58.0889
2023-05-21T11:08:55.848Z,57.2898
2023-05-21T11:09:53.256Z,53.9475
2023-05-21T11:20:04.347Z,58.9479
2023-05-21T11:22:07.511Z,57.6324
2023-05-21T11:23:07.969Z,57.2494
2023-05-21T11:24:08.324Z,56.2518
2023-05-21T11:25:10.243Z,58.0071
2023-05-21T11:26:12.332Z,59.3680
2023-05-21T11:27:12.953Z,59.5964
2023-05-21T11:29:15.289Z,58.0458
2023-05-21T11:30:16.371Z,57.5034
2023-05-21T11:31:18.121Z,58.2722
2023-05-21T11:32:19.313Z,57.7851
2023-05-21T11:33:20.559Z,57.3895
2023-05-21T11:34:22.974Z,55.3482
2023-05-21T11:35:23.086Z,52.0075
2023-05-21T11:36:24.304Z,51.9645
2023-05-21T11:50:38.959Z,51.6795
2023-05-21T12:00:52.878Z,49.2432
2023-05-21T12:01:54.383Z,49.0504
2023-05-21T12:02:55.561Z,44.6914
2023-05-21T12:06:00.712Z,48.5465
2023-05-21T12:07:01.961Z,48.3057
2023-05-21T12:08:02.366Z,48.6063
2023-05-21T12:09:03.426Z,50.1891
2023-05-21T12:10:04.432Z,49.7765
2023-05-21T12:11:05.141Z,48.4560
2023-05-21T12:26:18.395Z,49.4976
2023-05-21T12:27:20.235Z,51.3896
2023-05-21T12:43:36.528Z,52.4355
2023-05-21T12:44:38.909Z,52.7951
2023-05-21T12:46:41.812Z,52.1267
2023-05-21T12:56:56.465Z,53.4533
2023-05-21T12:57:57.217Z,53.1368
2023-05-21T13:02:59.646Z,55.0990
2023-05-21T13:05:00.159Z,53.7835
2023-05-21T13:08:05.022Z,52.0864
2023-05-21T13:09:06.648Z,50.3153
2023-05-21T13:10:08.190Z,54.8015
2023-05-21T13:11:10.929Z,53.9099
2023-05-21T13:12:12.952Z,54.2967
2023-05-21T13:20:19.403Z,51.0430
2023-05-21T13:21:21.278Z,53.2130
2023-05-21T13:22:22.280Z,53.5428
2023-05-21T13:23:25.118Z,55.9798
2023-05-21T13:30:31.230Z,54.8918
2023-05-21T13:33:35.802Z,54.4185
2023-05-21T13:34:36.378Z,55.1318
2023-05-21T13:35:36.443Z,52.9509
2023-05-21T13:36:37.314Z,51.8770
2023-05-21T13:37:37.312Z,52.8017
2023-05-21T13:39:39.998Z,53.3251
2023-05-21T13:40:41.086Z,50.6874
2023-05-21T13:41:41.283Z,48.0272
2023-05-21T13:42:41.377Z,48.2979
2023-05-21T13:43:43.898Z,49.8731
2023-05-21T13:44:45.710Z,49.0384
2023-05-21T13:52:53.935Z,49.2622
2023-05-21T13:53:57.034Z,50.6796
2023-05-21T13:58:56.834Z,49.1073
2023-05-21T13:59:57.490Z,49.7544
2023-05-21T14:10:12.778Z,43.8185
2023-05-21T14:11:13.080Z,45.2001
2023-05-21T14:13:20.555Z,47.3682
2023-05-21T14:15:18.624Z,45.7425
2023-05-21T14:16:20.523Z,48.7215
2023-05-21T14:17:22.699Z,46.6440
2023-05-21T14:19:25.248Z,47.3378
2023-05-21T14:21:26.610Z,47.2078
2023-05-21T14:22:26.899Z,44.9858
2023-05-21T14:32:36.944Z,45.0872
2023-05-21T14:33:37.922Z,44.9292
2023-05-21T14:34:38.832Z,44.6188
2023-05-21T14:36:42.208Z,41.6729
2023-05-21T14:37:42.836Z,44.8466
2023-05-21T14:38:44.040Z,44.8119
2023-05-21T14:39:43.884Z,45.0336
2023-05-21T14:42:48.416Z,46.0403
2023-05-21T14:43:49.075Z,42.6863
2023-05-21T14:44:49.499Z,44.3534
2023-05-21T14:45:50.911Z,41.8276
2023-05-21T14:46:50.959Z,41.0732
2023-05-21T14:47:52.365Z,44.7584
2023-05-21T14:48:54.103Z,43.0580
2023-05-21T14:49:55.876Z,42.9084
2023-05-21T14:50:56.529Z,45.5210
2023-05-21T14:51:58.463Z,43.1525
2023-05-21T14:52:58.772Z,48.6255
2023-05-21T14:53:59.296Z,57.5388
2023-05-21T14:56:01.431Z,45.4840
2023-05-21T14:57:01.681Z,50.3177
2023-05-21T14:59:05.210Z,44.4395
2023-05-21T15:00:05.769Z,49.6635
2023-05-21T15:01:06.648Z,49.5487
2023-05-21T15:02:07.422Z,59.5648
2023-05-21T15:03:08.078Z,51.9826
2023-05-21T15:05:09.795Z,43.5737
2023-05-21T15:06:09.585Z,49.4869
2023-05-21T15:08:12.492Z,55.6882
2023-05-21T15:09:13.246Z,58.4903
2023-05-21T15:12:18.549Z,55.8750
2023-05-21T15:21:29.358Z,50.3711
2023-05-21T15:22:30.721Z,44.3089
2023-05-21T15:31:39.688Z,39.1248
2023-05-21T15:32:39.787Z,39.1210
2023-05-21T15:33:40.937Z,40.4055
2023-05-21T15:34:40.930Z,39.5989
2023-05-21T15:35:44.828Z,39.3366
2023-05-21T15:36:44.068Z,41.2305
2023-05-21T15:37:45.042Z,40.7979
2023-05-21T15:38:45.522Z,40.5636
2023-05-21T15:40:48.151Z,39.0880
2023-05-21T15:42:49.870Z,37.5782
2023-05-21T15:43:51.553Z,37.6925
2023-05-21T15:44:52.893Z,39.0546
2023-05-21T15:45:53.501Z,40.8892
2023-05-21T15:46:54.341Z,41.9358
2023-05-21T15:47:54.541Z,43.1145
2023-05-21T15:48:56.179Z,44.6710
2023-05-21T15:49:58.327Z,40.4536
2023-05-21T15:50:58.864Z,41.0535
2023-05-21T15:52:00.210Z,41.7693
2023-05-21T15:53:02.396Z,40.4113
2023-05-21T15:56:32.936Z,42.4957
2023-05-21T15:58:39.240Z,43.1966
2023-05-21T16:18:30.648Z,45.1765
2023-05-21T16:19:33.235Z,45.1021
2023-05-21T16:25:40.391Z,44.5777
2023-05-21T16:26:42.035Z,43.6231
2023-05-21T16:27:42.524Z,48.9083
2023-05-21T16:32:49.049Z,48.4572
2023-05-21T16:33:49.911Z,49.8900
2023-05-21T16:34:51.454Z,53.3341
2023-05-21T16:35:54.387Z,52.3809
2023-05-21T16:36:57.508Z,53.7729
2023-05-21T16:59:51.213Z,48.0607
2023-05-21T17:06:57.248Z,46.4804
2023-05-21T17:15:07.174Z,55.7751
2023-05-21T17:16:07.300Z,56.1255
2023-05-21T17:17:09.363Z,58.5506
2023-05-21T17:18:12.334Z,62.9981
2023-05-21T17:19:12.436Z,58.8529
2023-05-21T17:20:13.629Z,59.1803
2023-05-21T17:21:15.417Z,58.4532
2023-05-21T17:23:19.284Z,62.4423
2023-05-21T17:24:21.258Z,62.1231
2023-05-21T17:25:21.862Z,61.0266
2023-05-21T17:37:34.613Z,59.9132
2023-05-21T17:52:55.680Z,67.3772
2023-05-21T17:53:56.674Z,66.3741
2023-05-21T17:54:56.862Z,65.6720
2023-05-21T17:57:00.389Z,69.0500
2023-05-21T17:58:02.940Z,69.6714
2023-05-21T17:59:04.508Z,68.7297
2023-05-21T18:00:05.598Z,68.1359
2023-05-21T18:08:17.774Z,70.5970
2023-05-21T18:20:30.802Z,70.3926
2023-05-21T18:21:31.486Z,71.6356
2023-05-21T18:22:32.982Z,71.1087
2023-05-21T18:24:35.469Z,71.1884
2023-05-21T18:28:39.716Z,73.1267
2023-05-21T18:29:40.949Z,72.4563
2023-05-21T18:30:41.225Z,72.2642
2023-05-21T18:31:41.982Z,72.9719
2023-05-21T18:32:42.676Z,73.2569
2023-05-21T18:33:42.749Z,71.0916
2023-05-21T18:34:44.713Z,73.1172
2023-05-21T18:35:45.544Z,70.9633
2023-05-21T18:49:57.728Z,73.5066
2023-05-21T18:50:59.956Z,70.7067
2023-05-21T18:52:00.506Z,69.1607
2023-05-21T18:53:01.762Z,72.8068
2023-05-21T18:54:03.102Z,71.1192
2023-05-21T18:56:03.175Z,71.5872
2023-05-21T18:57:04.745Z,71.5860
2023-05-21T18:58:07.025Z,70.9424
2023-05-21T18:59:09.114Z,72.1026
2023-05-21T19:00:09.594Z,72.0031
2023-05-21T19:02:13.127Z,71.5440
2023-05-21T19:03:14.844Z,72.4332
2023-05-21T19:04:15.991Z,72.6327
2023-05-21T19:12:22.726Z,71.7776
2023-05-21T19:13:24.706Z,72.6302
2023-05-21T19:14:25.869Z,73.0864
2023-05-21T19:15:26.455Z,72.6036
2023-05-21T19:16:28.705Z,72.4821
2023-05-21T19:17:30.729Z,72.7407
2023-05-21T19:25:38.373Z,74.3170
2023-05-21T19:28:42.970Z,73.3178
2023-05-21T19:29:44.205Z,73.2749
2023-05-21T19:30:45.383Z,74.7919
2023-05-21T19:31:47.287Z,75.9329
2023-05-21T19:32:48.699Z,74.1810
2023-05-21T19:33:50.265Z,73.9665
2023-05-21T19:34:52.300Z,74.6527
2023-05-21T19:35:54.052Z,74.8330
2023-05-21T19:36:56.062Z,73.9721
2023-05-21T19:37:56.157Z,73.7772
2023-05-21T19:38:57.543Z,73.6302
2023-05-21T19:39:59.808Z,74.0181
2023-05-21T19:41:01.203Z,74.1448
2023-05-21T19:42:02.873Z,74.5025
2023-05-21T19:48:08.294Z,78.1057
2023-05-21T19:49:10.224Z,76.7240
2023-05-21T19:50:11.919Z,77.2775
2023-05-21T19:51:12.441Z,76.7412
2023-05-21T19:52:12.577Z,74.9488
2023-05-21T19:53:14.229Z,75.0307
2023-05-21T19:54:15.276Z,76.8234
2023-05-21T19:55:15.314Z,76.9922
2023-05-21T19:56:15.867Z,77.4411
2023-05-21T19:57:16.109Z,78.8010
2023-05-21T19:58:17.873Z,78.2013
2023-05-21T19:59:19.684Z,76.7945
2023-05-21T20:01:21.949Z,77.0121
2023-05-21T20:02:23.477Z,76.4450
2023-05-21T20:03:24.722Z,76.3145
2023-05-21T20:05:27.352Z,75.8223
2023-05-21T20:28:53.787Z,79.5416
2023-05-21T20:29:55.542Z,80.5977
2023-05-21T20:30:55.773Z,80.1871
2023-05-21T20:31:57.056Z,78.3126
2023-05-21T20:32:59.325Z,80.1666
2023-05-21T20:34:01.616Z,80.9030
2023-05-21T20:35:04.380Z,80.5618
2023-05-21T20:45:15.343Z,82.2607
2023-05-21T20:46:16.482Z,80.7735
2023-05-21T20:47:17.716Z,82.2041
2023-05-21T20:48:19.030Z,83.1489
2023-05-21T20:49:19.754Z,82.3734
2023-05-21T20:51:23.049Z,82.4266
2023-05-21T21:03:38.839Z,82.9002
2023-05-21T21:04:39.290Z,83.2097
2023-05-21T21:05:39.735Z,83.6763
2023-05-21T21:06:41.843Z,83.5243
2023-05-21T21:07:42.051Z,84.5190
2023-05-21T21:08:42.131Z,84.6116
2023-05-21T21:09:44.584Z,83.9932
2023-05-21T21:10:46.472Z,83.7332
2023-05-21T21:11:47.923Z,83.5451
2023-05-21T21:13:50.935Z,83.8743
2023-05-21T21:14:51.658Z,83.1879
2023-05-21T21:16:54.237Z,83.8675
2023-05-21T21:17:56.288Z,83.7725
2023-05-21T21:18:57.350Z,82.1347
2023-05-21T21:28:06.943Z,82.2703
2023-05-21T21:29:08.408Z,81.4952
2023-05-21T21:30:10.066Z,82.6713
2023-05-21T21:31:11.759Z,82.3792
2023-05-21T21:32:14.081Z,82.3267
2023-05-21T21:33:14.000Z,82.3198
2023-05-21T21:39:24.786Z,83.1589
2023-05-21T21:40:25.702Z,83.3639
2023-05-21T21:42:28.643Z,83.3940
2023-05-21T21:43:29.445Z,83.6050
2023-05-21T21:44:29.555Z,83.3827
2023-05-21T21:45:31.266Z,83.5651
2023-05-21T21:46:33.157Z,83.3690
2023-05-21T21:47:34.468Z,83.6168
2023-05-21T21:48:36.367Z,83.3579
2023-05-21T21:49:37.898Z,82.3434
2023-05-21T21:50:40.054Z,82.2201
2023-05-21T22:01:53.543Z,81.8527
2023-05-21T22:02:55.353Z,81.7732
2023-05-21T22:03:56.375Z,82.7794
2023-05-21T22:04:58.458Z,83.3433
2023-05-21T22:05:59.078Z,83.6621
2023-05-21T22:07:00.259Z,83.4723
2023-05-21T22:08:01.906Z,83.8683
2023-05-21T22:09:03.728Z,84.0223
2023-05-21T22:17:11.182Z,81.9230
2023-05-21T22:23:16.172Z,80.8893
2023-05-21T22:24:32.134Z,80.8977
2023-05-21T22:30:54.836Z,80.4458
2023-05-21T22:31:56.466Z,80.5838
2023-05-21T22:32:58.762Z,80.1844
2023-05-21T22:33:58.786Z,80.4922
2023-05-21T22:34:59.349Z,79.8345
2023-05-21T22:37:04.085Z,80.1799
2023-05-21T22:38:04.944Z,79.4403
2023-05-21T22:39:05.652Z,79.5668
2023-05-21T22:40:06.857Z,79.9771
2023-05-21T22:41:08.724Z,80.7166
2023-05-21T22:42:09.297Z,81.4424
2023-05-21T22:43:10.539Z,81.6004
2023-05-21T22:52:21.352Z,79.7159
2023-05-21T22:53:23.136Z,79.2945
2023-05-21T22:57:29.846Z,77.8306
2023-05-21T23:06:39.922Z,76.8911
2023-05-21T23:07:41.053Z,75.8078
2023-05-21T23:08:43.632Z,75.9739
2023-05-21T23:09:45.511Z,75.9859
2023-05-21T23:10:47.599Z,76.1542
2023-05-21T23:11:47.458Z,75.6812
2023-05-21T23:12:47.951Z,75.5963
2023-05-21T23:14:52.025Z,75.5514
2023-05-21T23:16:54.839Z,75.6698
2023-05-21T23:17:55.261Z,75.7556
2023-05-21T23:18:56.574Z,76.4226
2023-05-21T23:19:57.882Z,76.6742
2023-05-21T23:30:41.807Z,77.4065
2023-05-21T23:42:55.313Z,79.3583
2023-05-21T23:43:57.181Z,79.6609
2023-05-21T23:44:58.989Z,79.6721
2023-05-21T23:46:00.466Z,79.1562
2023-05-21T23:47:02.438Z,79.3768
2023-05-21T23:48:03.938Z,79.3809
2023-05-21T23:49:06.583Z,79.6411
2023-05-21T23:50:08.531Z,80.2693
2023-05-21T23:51:08.360Z,80.1015
